Time;durP1;ratioP1;P1;durP2;ratioP2;P2;SDS_P1;SDS_P2;PMS_P1;PMS_P2;Temp;Humidity;BMP_temperature;BMP_pressure;BME280_temperature;BME280_humidity;BME280_pressure;Samples;Min_cycle;Max_cycle;Signal;HPM_P1;HPM_P2
2023/03/03 00:00:32;;;;;;;4.68;3.15;;;;;;;23.65;28.27;102168.19;4993913;28;20030;-47
2023/03/03 00:03:03;;;;;;;5.63;2.83;;;;;;;23.64;28.04;102176.00;4993009;28;20395;-46
2023/03/03 00:05:33;;;;;;;4.65;3.03;;;;;;;23.80;27.76;102175.69;4992622;28;20030;-42
2023/03/03 00:08:02;;;;;;;6.90;3.38;;;;;;;23.78;28.18;102169.50;4993449;28;20117;-44
2023/03/03 00:10:31;;;;;;;4.40;2.97;;;;;;;23.82;28.14;102175.72;4993494;28;20065;-45
2023/03/03 00:12:59;;;;;;;4.07;2.83;;;;;;;23.79;27.72;102168.66;4993814;28;20580;-45
2023/03/03 00:15:29;;;;;;;3.80;2.38;;;;;;;23.83;28.06;102173.13;4993731;28;20030;-45
2023/03/03 00:17:59;;;;;;;3.80;2.65;;;;;;;23.85;27.98;102167.06;4992295;28;20607;-44
2023/03/03 00:20:27;;;;;;;4.25;2.90;;;;;;;23.76;27.95;102170.28;4992363;28;20043;-47
2023/03/03 00:22:56;;;;;;;3.67;2.53;;;;;;;23.67;28.18;102171.75;4992570;28;20038;-45
2023/03/03 00:25:35;;;;;;;4.65;2.55;;;;;;;23.72;27.88;102163.16;4993183;28;20484;-44
2023/03/03 00:28:28;;;;;;;4.90;3.13;;;;;;;23.77;27.74;102165.09;4993290;28;20081;-47
2023/03/03 00:30:59;;;;;;;3.30;2.30;;;;;;;23.73;27.94;102157.09;4992940;28;20062;-44
2023/03/03 00:33:31;;;;;;;2.83;2.40;;;;;;;23.74;27.87;102164.13;4993541;28;20065;-46
2023/03/03 00:36:14;;;;;;;4.20;2.50;;;;;;;23.68;27.97;102162.16;4993586;28;20045;-47
2023/03/03 00:38:43;;;;;;;4.32;2.72;;;;;;;23.75;27.83;102165.88;4993473;28;20476;-43
2023/03/03 00:41:27;;;;;;;4.18;2.40;;;;;;;23.58;27.84;102155.72;4993567;28;20031;-41
2023/03/03 00:43:56;;;;;;;3.65;2.30;;;;;;;23.50;28.46;102163.31;4993639;28;20026;-44
2023/03/03 00:46:25;;;;;;;3.72;2.05;;;;;;;23.56;28.04;102169.63;4993411;28;20085;-45
2023/03/03 00:48:53;;;;;;;3.17;2.15;;;;;;;23.64;27.96;102160.31;4993340;28;20432;-42
2023/03/03 00:51:34;;;;;;;3.47;2.15;;;;;;;23.69;27.96;102160.44;4993444;28;20472;-51
2023/03/03 00:54:03;;;;;;;4.30;2.60;;;;;;;23.65;28.09;102156.84;4993300;28;20421;-45
2023/03/03 00:56:31;;;;;;;4.30;2.20;;;;;;;23.63;28.19;102158.50;4993214;28;20113;-48
2023/03/03 00:59:00;;;;;;;3.30;2.42;;;;;;;23.67;27.76;102158.66;4993240;28;20037;-43
2023/03/03 01:01:29;;;;;;;6.30;2.22;;;;;;;23.72;27.62;102153.56;4993331;28;20046;-50
2023/03/03 01:03:57;;;;;;;4.40;2.45;;;;;;;23.67;27.73;102150.81;4993348;28;20035;-45
2023/03/03 01:06:26;;;;;;;2.95;1.98;;;;;;;23.67;27.71;102150.81;4993102;28;20447;-45
2023/03/03 01:08:56;;;;;;;4.10;2.55;;;;;;;23.61;28.07;102149.72;4993501;28;20033;-44
2023/03/03 01:11:28;;;;;;;2.13;1.75;;;;;;;23.56;28.04;102154.81;4993367;28;20026;-47
2023/03/03 01:13:57;;;;;;;3.72;1.90;;;;;;;23.52;27.93;102166.88;4991981;28;20030;-45
2023/03/03 01:16:26;;;;;;;3.50;2.30;;;;;;;23.61;28.12;102152.34;4993326;28;20023;-44
2023/03/03 01:18:55;;;;;;;3.40;2.00;;;;;;;23.65;28.01;102154.22;4992899;28;20022;-41
2023/03/03 01:21:23;;;;;;;2.50;1.90;;;;;;;23.56;27.77;102160.03;4993256;28;20019;-42
2023/03/03 01:23:52;;;;;;;3.60;2.08;;;;;;;23.48;28.18;102158.88;4993226;28;20050;-45
2023/03/03 01:26:20;;;;;;;3.30;1.90;;;;;;;23.48;28.01;102153.63;4991996;28;20088;-44
2023/03/03 01:28:49;;;;;;;3.00;2.10;;;;;;;23.59;27.94;102151.38;4993158;28;20081;-48
2023/03/03 01:31:18;;;;;;;4.18;2.25;;;;;;;23.60;28.10;102155.78;4993041;28;20109;-45
2023/03/03 01:33:46;;;;;;;3.72;1.90;;;;;;;23.59;27.94;102157.50;4992907;28;20113;-44
2023/03/03 01:36:15;;;;;;;3.25;2.03;;;;;;;23.54;27.80;102158.19;4992998;28;20409;-46
2023/03/03 01:38:44;;;;;;;3.55;1.95;;;;;;;23.58;27.92;102166.19;4996567;28;20080;-43
2023/03/03 01:41:12;;;;;;;2.97;1.83;;;;;;;23.61;27.96;102162.81;4996256;28;20356;-52
2023/03/03 01:43:45;;;;;;;2.78;1.98;;;;;;;23.57;27.94;102167.06;4996322;28;20033;-45
2023/03/03 01:46:36;;;;;;;2.42;1.77;;;;;;;23.55;27.99;102159.97;4996601;28;20066;-47
2023/03/03 01:49:11;;;;;;;3.20;1.90;;;;;;;23.52;27.93;102161.66;4992408;28;20042;-45
2023/03/03 01:51:51;;;;;;;3.35;2.13;;;;;;;23.49;28.17;102169.44;4995134;28;20519;-43
2023/03/03 01:54:24;;;;;;;3.00;1.98;;;;;;;23.55;28.04;102166.13;4996076;28;20681;-44
2023/03/03 01:56:55;;;;;;;2.15;1.70;;;;;;;23.63;27.87;102154.16;4996121;28;20030;-49
2023/03/03 01:59:27;;;;;;;4.50;2.17;;;;;;;23.63;27.81;102155.91;4996059;28;20113;-45
2023/03/03 02:01:55;;;;;;;2.85;1.75;;;;;;;23.54;28.15;102158.19;4996077;28;20031;-42
2023/03/03 02:04:25;;;;;;;2.80;1.75;;;;;;;23.56;27.41;102152.19;4994885;28;20018;-46
2023/03/03 02:06:58;;;;;;;2.75;2.05;;;;;;;23.53;27.77;102152.06;4995935;28;20037;-45
2023/03/03 02:09:34;;;;;;;2.58;1.88;;;;;;;23.53;27.73;102149.47;4995029;28;20073;-45
2023/03/03 02:12:07;;;;;;;2.58;1.80;;;;;;;23.47;28.03;102151.84;4994660;28;20062;-45
2023/03/03 02:14:36;;;;;;;3.22;1.75;;;;;;;23.49;28.13;102151.09;4994619;28;20034;-45
2023/03/03 02:17:05;;;;;;;3.28;1.83;;;;;;;23.46;27.96;102148.38;4995433;28;20097;-43
2023/03/03 02:19:47;;;;;;;2.63;1.88;;;;;;;23.58;27.81;102139.13;4996295;28;20030;-45
2023/03/03 02:22:18;;;;;;;2.92;1.73;;;;;;;23.67;27.48;102139.41;4979185;28;20037;-43
2023/03/03 02:24:52;;;;;;;3.15;1.92;;;;;;;23.59;28.07;102140.91;4994376;28;20459;-46
2023/03/03 02:27:21;;;;;;;2.42;1.65;;;;;;;23.51;27.64;102136.28;4994406;28;20117;-45
2023/03/03 02:29:51;;;;;;;2.55;1.80;;;;;;;23.49;27.96;102132.75;4994304;28;20484;-45
2023/03/03 02:32:19;;;;;;;2.40;1.85;;;;;;;23.45;27.80;102130.88;4995575;28;20047;-45
2023/03/03 02:34:50;;;;;;;2.85;1.60;;;;;;;23.48;28.12;102135.31;4994992;28;20026;-47
2023/03/03 02:37:20;;;;;;;3.63;2.08;;;;;;;23.51;27.91;102128.44;4995402;28;20037;-50
2023/03/03 02:39:49;;;;;;;3.30;1.80;;;;;;;23.51;27.76;102136.28;4995519;28;20027;-47
2023/03/03 02:42:20;;;;;;;2.58;1.65;;;;;;;23.58;27.63;102121.66;4995290;28;20059;-42
2023/03/03 02:44:49;;;;;;;2.75;1.73;;;;;;;23.57;27.62;102113.78;4995489;28;20037;-45
2023/03/03 02:47:17;;;;;;;1.90;1.70;;;;;;;23.54;27.70;102124.13;4995052;28;20026;-50
2023/03/03 02:49:46;;;;;;;3.25;1.75;;;;;;;23.54;27.80;102124.13;4994897;28;20054;-45
2023/03/03 02:52:17;;;;;;;3.30;2.15;;;;;;;23.48;27.75;102127.44;4993958;28;20387;-42
2023/03/03 02:54:46;;;;;;;2.30;1.80;;;;;;;23.49;27.68;102119.66;4994908;28;20038;-42
2023/03/03 02:57:14;;;;;;;3.92;1.95;;;;;;;23.48;27.83;102117.88;4994796;28;20046;-41
2023/03/03 02:59:43;;;;;;;3.05;1.77;;;;;;;23.51;27.97;102128.44;4994933;28;20044;-47
2023/03/03 03:02:11;;;;;;;2.53;1.70;;;;;;;23.50;27.92;102117.91;4994929;28;20499;-47
2023/03/03 03:04:40;;;;;;;2.83;1.70;;;;;;;23.47;28.01;102117.81;4993241;28;20030;-48
2023/03/03 03:07:08;;;;;;;2.85;1.92;;;;;;;23.45;27.65;102116.88;4994977;28;20033;-44
2023/03/03 03:09:37;;;;;;;2.50;1.80;;;;;;;23.36;28.24;102107.88;4994899;28;20104;-47
2023/03/03 03:12:07;;;;;;;3.03;1.70;;;;;;;23.34;27.91;102121.72;4994935;28;20041;-47
2023/03/03 03:14:36;;;;;;;2.55;1.70;;;;;;;23.37;28.13;102119.22;4994665;28;20048;-43
2023/03/03 03:17:04;;;;;;;2.97;1.92;;;;;;;23.39;27.86;102114.06;4993237;28;20142;-49
2023/03/03 03:19:33;;;;;;;3.10;1.58;;;;;;;23.38;27.94;102115.78;4994790;28;20026;-45
2023/03/03 03:22:02;;;;;;;2.63;1.88;;;;;;;23.36;27.73;102118.34;4994642;28;20026;-47
2023/03/03 03:24:30;;;;;;;3.80;1.95;;;;;;;23.46;27.55;102122.19;4994350;28;20054;-43
2023/03/03 03:26:59;;;;;;;2.75;1.42;;;;;;;23.31;28.12;102122.53;4994456;28;20420;-48
2023/03/03 03:29:28;;;;;;;2.88;1.63;;;;;;;23.30;27.92;102123.38;4993997;28;20041;-48
2023/03/03 03:31:57;;;;;;;3.22;2.00;;;;;;;23.27;28.21;102115.41;4994592;28;20088;-45
2023/03/03 03:34:26;;;;;;;5.88;2.40;;;;;;;23.33;28.20;102113.00;4994309;28;20380;-42
2023/03/03 03:36:55;;;;;;;3.50;2.03;;;;;;;23.36;28.08;102112.22;4994132;28;20125;-45
2023/03/03 03:39:23;;;;;;;3.15;1.90;;;;;;;23.38;27.93;102107.03;4992764;28;20018;-42
2023/03/03 03:41:52;;;;;;;2.90;2.00;;;;;;;23.28;27.71;102113.69;4994271;28;20030;-45
2023/03/03 03:44:22;;;;;;;4.72;2.05;;;;;;;23.31;28.06;102116.41;4994317;28;20034;-45
2023/03/03 03:46:51;;;;;;;4.53;2.25;;;;;;;23.42;27.88;102103.66;4994228;28;20030;-41
2023/03/03 03:49:20;;;;;;;3.50;1.92;;;;;;;23.42;27.56;102101.94;4994099;28;20030;-44
2023/03/03 03:51:49;;;;;;;3.20;1.83;;;;;;;23.36;27.98;102102.63;4994256;28;20019;-45
2023/03/03 03:54:17;;;;;;;3.92;1.77;;;;;;;23.44;27.53;102109.84;4994006;28;20141;-44
2023/03/03 03:56:46;;;;;;;2.65;1.70;;;;;;;23.34;27.71;102108.63;4993901;28;20022;-46
2023/03/03 03:59:15;;;;;;;2.45;1.75;;;;;;;23.31;27.97;102106.81;4993192;28;20041;-45
2023/03/03 04:01:43;;;;;;;2.47;1.90;;;;;;;23.35;27.64;102098.25;4993668;28;20110;-50
2023/03/03 04:04:12;;;;;;;4.63;2.53;;;;;;;23.30;27.84;102105.03;4993869;28;20026;-47
2023/03/03 04:06:41;;;;;;;3.10;1.92;;;;;;;23.31;27.81;102103.34;4993885;28;20030;-44
2023/03/03 04:09:09;;;;;;;3.10;2.10;;;;;;;23.27;28.08;102093.59;4993828;28;20490;-41
2023/03/03 04:11:38;;;;;;;3.70;2.10;;;;;;;23.20;28.15;102098.59;4993820;28;20026;-44
2023/03/03 04:14:07;;;;;;;3.47;1.88;;;;;;;23.24;27.74;102098.72;4993790;28;20034;-42
2023/03/03 04:16:35;;;;;;;4.25;2.30;;;;;;;23.30;27.95;102097.19;4993546;28;20468;-45
2023/03/03 04:19:04;;;;;;;3.75;2.00;;;;;;;23.26;28.01;102097.03;4993908;28;20066;-44
2023/03/03 04:21:33;;;;;;;3.42;2.25;;;;;;;23.31;27.48;102103.34;4993529;28;20538;-44
2023/03/03 04:24:01;;;;;;;4.43;2.17;;;;;;;23.32;27.67;102107.72;4992280;28;20065;-42
2023/03/03 04:26:30;;;;;;;2.17;1.73;;;;;;;23.32;27.99;102095.50;4993746;28;20038;-44
2023/03/03 04:28:59;;;;;;;3.05;2.13;;;;;;;23.40;27.21;102103.63;4993804;28;20038;-42
2023/03/03 04:31:27;;;;;;;3.60;2.30;;;;;;;23.38;27.68;102100.06;4994409;28;20050;-41
2023/03/03 04:33:56;;;;;;;4.30;2.10;;;;;;;23.41;27.60;102102.78;4993455;28;20387;-47
2023/03/03 04:36:24;;;;;;;3.63;2.17;;;;;;;23.40;27.26;102105.38;4992237;28;20428;-48
2023/03/03 04:38:53;;;;;;;3.80;2.42;;;;;;;23.39;27.86;102111.44;4993564;28;20022;-43
2023/03/03 04:41:22;;;;;;;2.78;2.08;;;;;;;23.31;27.54;102101.59;4993842;28;20464;-44
2023/03/03 04:43:51;;;;;;;3.65;2.00;;;;;;;23.45;27.77;102103.78;4993125;28;20028;-45
2023/03/03 04:46:20;;;;;;;3.67;2.10;;;;;;;23.40;27.78;102102.75;4993745;28;20026;-44
2023/03/03 04:48:48;;;;;;;3.47;2.28;;;;;;;23.32;27.52;102100.75;4993468;28;20023;-45
2023/03/03 04:51:17;;;;;;;3.88;2.28;;;;;;;23.30;27.50;102091.94;4992129;28;20041;-43
2023/03/03 04:53:46;;;;;;;4.10;2.08;;;;;;;23.28;27.50;102097.97;4993636;28;20088;-49
2023/03/03 04:56:15;;;;;;;3.35;2.20;;;;;;;23.30;27.49;102096.31;4993231;28;20065;-46
2023/03/03 04:58:44;;;;;;;3.08;2.42;;;;;;;23.28;27.76;102092.75;4993557;28;20050;-42
2023/03/03 05:01:14;;;;;;;2.47;2.17;;;;;;;23.25;27.69;102098.75;4993412;28;20050;-45
2023/03/03 05:03:42;;;;;;;3.13;2.20;;;;;;;23.15;27.96;102097.53;4993265;28;20060;-47
2023/03/03 05:06:12;;;;;;;3.78;2.38;;;;;;;23.15;27.88;102096.63;4993253;28;20030;-46
2023/03/03 05:08:42;;;;;;;5.95;2.72;;;;;;;23.21;27.92;102092.53;4993209;28;20045;-50
2023/03/03 05:11:10;;;;;;;3.92;2.03;;;;;;;23.23;27.83;102096.94;4993611;28;20027;-44
2023/03/03 05:13:39;;;;;;;2.55;2.33;;;;;;;23.26;27.74;102107.50;4995911;28;20430;-43
2023/03/03 05:16:08;;;;;;;3.03;2.10;;;;;;;23.28;27.66;102097.97;4996887;28;20357;-47
2023/03/03 05:18:36;;;;;;;2.60;1.90;;;;;;;23.34;27.36;102096.47;4996778;28;20018;-48
2023/03/03 05:21:05;;;;;;;3.33;2.10;;;;;;;23.33;27.37;102102.53;4995726;28;20084;-47
2023/03/03 05:23:34;;;;;;;2.85;1.92;;;;;;;23.20;27.70;102101.22;4996989;28;20054;-50
2023/03/03 05:26:02;;;;;;;3.90;1.90;;;;;;;23.17;27.80;102110.66;4996545;28;20046;-45
2023/03/03 05:28:32;;;;;;;3.13;2.10;;;;;;;23.29;27.42;102112.84;4996997;28;20030;-51
2023/03/03 05:31:00;;;;;;;4.70;2.30;;;;;;;23.26;27.60;102121.47;4996378;28;20034;-46
2023/03/03 05:33:29;;;;;;;3.42;2.60;;;;;;;23.28;27.38;102117.19;4996506;28;20037;-45
2023/03/03 05:35:58;;;;;;;3.55;2.20;;;;;;;23.30;27.75;102125.09;4994775;28;20100;-46
2023/03/03 05:38:27;;;;;;;3.50;1.88;;;;;;;23.30;27.69;102127.72;4995882;28;20037;-42
2023/03/03 05:40:55;;;;;;;4.78;2.05;;;;;;;23.16;27.68;102121.97;4996398;28;20027;-49
2023/03/03 05:43:24;;;;;;;3.15;2.08;;;;;;;23.32;27.32;102126.06;4996087;28;20427;-46
2023/03/03 05:45:57;;;;;;;4.40;2.10;;;;;;;23.18;27.77;102129.03;4996511;28;20369;-43
2023/03/03 05:48:26;;;;;;;2.72;1.70;;;;;;;23.19;27.78;102124.69;4996491;28;20113;-45
2023/03/03 05:50:55;;;;;;;2.47;1.90;;;;;;;23.11;27.49;102129.66;4996301;28;20380;-45
2023/03/03 05:53:23;;;;;;;2.22;1.80;;;;;;;23.15;27.93;102126.34;4994473;28;20507;-45
2023/03/03 05:55:52;;;;;;;2.90;2.00;;;;;;;23.10;27.78;102122.66;4996019;28;20396;-45
2023/03/03 05:58:20;;;;;;;3.10;2.17;;;;;;;23.05;28.00;102129.44;4996223;28;20022;-50
2023/03/03 06:00:49;;;;;;;2.90;2.47;;;;;;;23.15;27.54;102125.44;4994965;28;20034;-45
2023/03/03 06:03:17;;;;;;;2.47;1.85;;;;;;;23.15;27.41;102126.34;4996096;28;20030;-45
2023/03/03 06:05:46;;;;;;;2.88;1.58;;;;;;;23.11;27.84;102128.75;4996069;28;20084;-44
2023/03/03 06:08:15;;;;;;;2.63;1.80;;;;;;;23.24;27.25;102127.50;4996078;28;20392;-42
2023/03/03 06:10:43;;;;;;;2.55;1.80;;;;;;;23.22;27.43;102127.47;4995995;28;20034;-44
2023/03/03 06:13:12;;;;;;;4.40;2.15;;;;;;;23.21;27.47;102128.31;4995952;28;20057;-47
2023/03/03 06:15:40;;;;;;;2.53;1.83;;;;;;;23.02;27.98;102122.38;4996245;28;20035;-45
2023/03/03 06:18:09;;;;;;;3.88;2.17;;;;;;;23.11;27.83;102128.75;4995876;28;20468;-47
2023/03/03 06:20:37;;;;;;;5.78;2.10;;;;;;;23.01;27.52;102118.00;4996086;28;20039;-45
2023/03/03 06:23:06;;;;;;;2.03;1.50;;;;;;;23.00;27.70;102131.91;4994775;28;20036;-45
2023/03/03 06:25:35;;;;;;;3.90;1.98;;;;;;;23.10;27.47;102129.59;4995514;28;20050;-45
2023/03/03 06:28:04;;;;;;;4.85;2.15;;;;;;;23.09;27.37;102127.81;4995800;28;20113;-48
2023/03/03 06:30:32;;;;;;;3.70;2.05;;;;;;;23.00;27.86;102123.19;4995326;28;20037;-43
2023/03/03 06:33:01;;;;;;;2.90;1.40;;;;;;;23.04;27.82;102125.94;4994377;28;20050;-43
2023/03/03 06:35:30;;;;;;;3.50;2.15;;;;;;;23.13;27.33;102130.63;4995759;28;20457;-46
2023/03/03 06:37:59;;;;;;;5.55;2.38;;;;;;;23.06;27.95;102131.22;4978344;28;20069;-48
2023/03/03 06:40:27;;;;;;;2.58;1.83;;;;;;;23.18;27.55;102129.03;4995356;28;20033;-50
2023/03/03 06:42:56;;;;;;;5.07;2.00;;;;;;;23.12;27.49;102125.31;4994292;28;20062;-42
2023/03/03 06:45:24;;;;;;;2.85;1.80;;;;;;;23.05;27.79;102125.13;4993770;28;20435;-46
2023/03/03 06:47:53;;;;;;;4.22;2.08;;;;;;;23.03;27.64;102125.88;4995369;28;20468;-49
2023/03/03 06:50:22;;;;;;;2.90;1.83;;;;;;;23.01;27.72;102127.53;4994532;28;20037;-47
2023/03/03 06:53:04;;;;;;;3.80;1.60;;;;;;;22.87;27.59;102112.25;4995165;28;20034;-50
2023/03/03 06:55:33;;;;;;;2.42;1.90;;;;;;;22.99;27.77;102134.47;4994266;28;20026;-45
2023/03/03 06:58:04;;;;;;;3.70;1.90;;;;;;;22.96;27.80;102130.00;4995047;28;20026;-43
2023/03/03 07:00:34;;;;;;;3.13;2.03;;;;;;;22.95;28.10;102119.50;4993836;28;20036;-43
2023/03/03 07:03:12;;;;;;;6.20;2.22;;;;;;;23.04;28.11;102136.41;4989091;28;20038;-46
2023/03/03 07:05:41;;;;;;;4.68;1.83;;;;;;;23.05;27.71;102135.59;4985090;28;20408;-46
2023/03/03 07:08:20;;;;;;;3.80;2.03;;;;;;;23.05;27.66;102142.53;4978204;28;20033;-45
2023/03/03 07:10:50;;;;;;;9.38;1.92;;;;;;;23.13;27.85;102145.41;4975214;28;20061;-48
2023/03/03 07:13:22;;;;;;;4.95;2.03;;;;;;;23.14;27.42;102141.97;4973829;28;20037;-45
2023/03/03 07:15:52;;;;;;;4.75;1.67;;;;;;;23.11;27.70;102148.00;4975419;28;20395;-49
2023/03/03 07:19:00;;;;;;;2.83;1.48;;;;;;;23.07;27.84;102151.34;4975549;28;20027;-47
2023/03/03 07:21:33;;;;;;;5.80;2.08;;;;;;;23.08;27.64;102158.34;4975509;28;20528;-47
2023/03/03 07:24:14;;;;;;;4.20;2.05;;;;;;;23.11;28.01;102152.31;4974765;28;20380;-45
2023/03/03 07:26:42;;;;;;;3.00;1.77;;;;;;;23.15;27.68;102156.84;4974143;28;20066;-44
2023/03/03 07:29:29;;;;;;;5.00;1.95;;;;;;;23.07;27.96;102153.94;4974916;28;20031;-46
2023/03/03 07:31:59;;;;;;;2.67;1.50;;;;;;;23.09;27.48;102162.75;4975537;28;20022;-47
2023/03/03 07:34:36;;;;;;;3.60;1.48;;;;;;;22.97;27.93;102165.81;4974244;28;20378;-47
2023/03/03 07:37:17;;;;;;;1.38;1.23;;;;;;;23.10;27.97;102169.75;4989610;28;20026;-46
2023/03/03 07:39:46;;;;;;;5.82;1.30;;;;;;;23.02;27.83;102173.81;4973644;28;20035;-45
2023/03/03 07:42:43;;;;;;;9.32;1.67;;;;;;;23.04;27.91;102182.63;4957556;28;20027;-44
2023/03/03 07:45:32;;;;;;;3.75;1.40;;;;;;;23.05;27.83;102179.16;4974708;28;20030;-42
2023/03/03 07:48:24;;;;;;;4.97;1.55;;;;;;;23.12;27.83;102175.94;4973513;28;20468;-44
2023/03/03 07:50:53;;;;;;;4.40;1.50;;;;;;;23.14;27.80;102182.13;4975897;28;20495;-42
2023/03/03 07:53:40;;;;;;;5.47;1.38;;;;;;;23.07;27.60;102187.97;4974704;28;20031;-42
2023/03/03 07:56:19;;;;;;;3.88;1.48;;;;;;;23.15;27.47;102183.00;4974641;28;20062;-45
2023/03/03 07:58:48;;;;;;;2.20;1.25;;;;;;;23.09;27.65;102185.41;4974525;28;20465;-42
2023/03/03 08:01:38;;;;;;;4.05;1.75;;;;;;;23.13;27.67;102193.44;4974623;28;20065;-44
2023/03/03 08:04:25;;;;;;;3.97;1.60;;;;;;;23.26;27.47;102200.00;4972988;28;20404;-41
2023/03/03 08:06:56;;;;;;;3.72;1.45;;;;;;;23.16;27.62;102205.75;4974565;28;20097;-42
2023/03/03 08:09:44;;;;;;;2.85;1.60;;;;;;;23.11;27.76;102197.72;4974461;28;20030;-49
2023/03/03 08:12:31;;;;;;;2.42;1.20;;;;;;;23.05;28.04;102205.34;4974449;28;20075;-47
2023/03/03 08:15:31;;;;;;;3.47;1.10;;;;;;;23.09;28.12;102203.72;4974030;28;20508;-45
2023/03/03 08:18:04;;;;;;;4.93;1.35;;;;;;;23.16;27.66;102205.75;4974360;28;20113;-45
2023/03/03 08:20:35;;;;;;;2.97;1.30;;;;;;;23.15;27.98;102204.88;4974237;28;20023;-45
2023/03/03 08:23:03;;;;;;;3.80;1.65;;;;;;;23.19;27.89;102219.81;4974116;28;20039;-42
2023/03/03 08:25:32;;;;;;;6.00;1.33;;;;;;;23.04;28.01;102214.94;4974142;28;20550;-45
2023/03/03 08:28:01;;;;;;;4.22;1.73;;;;;;;23.00;27.93;102220.00;4974483;28;20035;-45
2023/03/03 08:30:30;;;;;;;3.45;1.30;;;;;;;23.12;28.01;102227.41;4974296;28;20109;-44
2023/03/03 08:33:00;;;;;;;2.78;1.35;;;;;;;23.05;27.79;102221.03;4974321;28;20115;-45
2023/03/03 08:35:28;;;;;;;3.08;1.33;;;;;;;23.12;28.06;102222.16;4974493;28;20027;-44
2023/03/03 08:37:57;;;;;;;6.10;1.52;;;;;;;23.15;28.08;102220.56;4973946;28;20054;-49
2023/03/03 08:40:26;;;;;;;3.88;1.40;;;;;;;23.17;27.95;102218.88;5012991;28;20499;-45
2023/03/03 08:42:54;;;;;;;5.30;1.70;;;;;;;23.25;27.79;102234.00;5013020;28;20111;-49
2023/03/03 08:45:24;;;;;;;11.77;6.18;;;;;;;23.28;27.69;102234.13;5013555;28;20025;-48
2023/03/03 08:47:51;;;;;;;27.08;16.83;;;;;;;23.28;28.22;102231.50;5016094;28;20025;-42
2023/03/03 08:50:20;;;;;;;36.42;23.70;;;;;;;23.21;28.03;102231.28;5017376;28;20104;-47
2023/03/03 08:52:49;;;;;;;48.40;30.55;;;;;;;23.21;28.20;102220.81;5017087;28;20018;-42
2023/03/03 08:55:18;;;;;;;58.40;37.95;;;;;;;23.34;28.00;102235.22;5017295;28;20048;-43
2023/03/03 08:57:47;;;;;;;73.25;48.25;;;;;;;23.24;28.43;102229.59;5016961;28;20022;-47
2023/03/03 09:00:17;;;;;;;86.95;54.03;;;;;;;23.27;28.64;102227.09;5017120;28;20081;-43
2023/03/03 09:02:46;;;;;;;85.75;56.90;;;;;;;23.07;28.77;102216.75;5016967;28;20022;-49
2023/03/03 09:05:13;;;;;;;101.93;63.30;;;;;;;23.15;28.75;102227.50;5016812;28;20157;-50
2023/03/03 09:07:43;;;;;;;113.32;71.40;;;;;;;23.30;28.64;102233.34;5016706;28;20101;-49
2023/03/03 09:10:13;;;;;;;114.40;78.47;;;;;;;23.25;29.01;102216.56;5015576;28;20029;-45
2023/03/03 09:12:47;;;;;;;127.13;81.75;;;;;;;23.28;28.71;102229.75;5016842;28;20380;-42
2023/03/03 09:15:26;;;;;;;130.88;88.75;;;;;;;23.30;29.33;102232.47;5015643;28;20117;-47
2023/03/03 09:18:00;;;;;;;137.70;94.57;;;;;;;23.30;29.39;102232.47;5016002;28;20030;-45
2023/03/03 09:20:36;;;;;;;144.80;97.57;;;;;;;23.20;29.14;102231.19;5016572;28;20034;-47
2023/03/03 09:23:24;;;;;;;153.50;102.22;;;;;;;23.31;29.04;102229.00;5015589;28;20030;-47
2023/03/03 09:25:52;;;;;;;152.05;104.30;;;;;;;23.30;29.22;102238.56;5015102;28;20165;-45
2023/03/03 09:28:25;;;;;;;156.95;107.35;;;;;;;23.27;29.44;102234.97;5015451;28;20033;-44
2023/03/03 09:30:54;;;;;;;171.93;116.10;;;;;;;23.31;29.27;102239.47;5016087;28;20054;-45
2023/03/03 09:33:43;;;;;;;168.05;117.65;;;;;;;23.41;29.02;102238.09;5015100;28;20022;-42
2023/03/03 09:36:22;;;;;;;182.80;124.38;;;;;;;23.32;29.13;102241.25;5016138;28;20445;-47
2023/03/03 09:38:50;;;;;;;188.43;127.30;;;;;;;23.28;29.40;102241.97;5016562;28;20084;-44
2023/03/03 09:41:38;;;;;;;196.68;131.88;;;;;;;23.32;29.38;102242.13;5015164;28;20515;-44
2023/03/03 09:44:45;;;;;;;192.80;132.55;;;;;;;23.26;29.86;102248.88;5015314;28;20046;-47
2023/03/03 09:47:28;;;;;;;192.82;133.15;;;;;;;23.30;29.56;102256.03;5016013;28;20085;-47
2023/03/03 09:50:12;;;;;;;204.55;138.68;;;;;;;23.38;29.71;102259.78;5015191;28;20392;-46
2023/03/03 09:53:03;;;;;;;202.18;142.80;;;;;;;23.29;29.59;102251.63;5016005;28;20092;-46
2023/03/03 09:55:45;;;;;;;205.07;138.95;;;;;;;23.27;30.12;102258.53;5006657;28;20042;-42
2023/03/03 09:58:13;;;;;;;212.45;144.18;;;;;;;23.36;29.66;102253.59;5015195;28;20040;-42
2023/03/03 10:00:48;;;;;;;212.00;144.52;;;;;;;23.33;30.07;102264.88;5015875;28;20463;-48
2023/03/03 10:03:23;;;;;;;216.43;153.18;;;;;;;23.33;29.80;102253.53;5015683;28;20044;-47
2023/03/03 10:06:29;;;;;;;232.32;158.00;;;;;;;23.31;30.02;102260.44;5015873;28;20502;-46
2023/03/03 10:09:07;;;;;;;225.88;158.88;;;;;;;23.35;29.95;102270.16;5011928;28;20037;-44
2023/03/03 10:12:01;;;;;;;219.30;150.77;;;;;;;23.38;30.08;102270.28;5015630;28;20450;-45
2023/03/03 10:14:49;;;;;;;220.07;156.48;;;;;;;23.31;30.19;102265.66;5015262;28;20032;-46
2023/03/03 10:17:26;;;;;;;224.82;158.60;;;;;;;23.35;29.95;102270.16;5011224;28;20033;-45
2023/03/03 10:20:02;;;;;;;223.77;157.40;;;;;;;23.37;30.17;102265.88;5015614;28;20083;-48
2023/03/03 10:22:32;;;;;;;236.77;165.77;;;;;;;23.41;30.19;102278.25;5015607;28;20034;-43
2023/03/03 10:25:03;;;;;;;236.88;161.02;;;;;;;23.42;29.84;102268.66;5015040;28;20076;-46
2023/03/03 10:28:03;;;;;;;219.05;153.82;;;;;;;23.56;29.61;102271.75;5015189;28;20076;-46
2023/03/03 10:30:54;;;;;;;232.02;166.50;;;;;;;23.47;30.07;102280.19;5014653;28;20096;-43
2023/03/03 10:33:41;;;;;;;224.77;165.25;;;;;;;23.47;29.87;102273.25;5011149;28;20069;-45
2023/03/03 10:36:14;;;;;;;231.27;166.98;;;;;;;23.45;30.24;102277.53;5013984;28;20046;-41
2023/03/03 10:39:10;;;;;;;243.20;169.75;;;;;;;23.50;29.81;102283.78;5015310;28;20056;-46
2023/03/03 10:41:42;;;;;;;228.60;163.95;;;;;;;23.46;30.17;102283.63;5011977;28;20039;-46
2023/03/03 10:44:33;;;;;;;235.73;167.05;;;;;;;23.49;29.99;102283.75;5014868;28;20056;-45
2023/03/03 10:47:28;;;;;;;248.35;167.88;;;;;;;23.42;30.18;102293.13;5013901;28;20502;-45
2023/03/03 10:50:15;;;;;;;230.05;165.07;;;;;;;23.48;29.98;102285.50;5014832;28;20048;-42
2023/03/03 10:53:05;;;;;;;242.68;170.20;;;;;;;23.59;29.98;102290.22;5012510;28;20061;-42
2023/03/03 10:55:40;;;;;;;242.90;172.98;;;;;;;23.51;30.23;102288.19;5013560;28;20029;-46
2023/03/03 10:58:46;;;;;;;259.63;182.65;;;;;;;23.50;30.44;102286.41;5014613;28;20058;-46
2023/03/03 11:01:31;;;;;;;249.88;180.10;;;;;;;23.53;30.41;102288.28;5014500;28;20403;-42
2023/03/03 11:04:12;;;;;;;258.73;185.48;;;;;;;23.42;30.49;102293.13;5014800;28;20030;-45
2023/03/03 11:06:51;;;;;;;244.73;178.73;;;;;;;23.46;30.39;102286.25;5014946;28;20083;-45
2023/03/03 11:09:39;;;;;;;246.07;176.85;;;;;;;23.59;30.02;102284.97;5014658;28;20034;-45
2023/03/03 11:12:24;;;;;;;258.38;185.13;;;;;;;23.54;30.22;102281.28;5013831;28;20042;-45
2023/03/03 11:15:04;;;;;;;247.88;177.68;;;;;;;23.52;30.62;102282.13;5013239;28;20538;-47
2023/03/03 11:17:45;;;;;;;263.58;187.05;;;;;;;23.59;30.16;102287.59;5013130;28;20037;-42
2023/03/03 11:20:41;;;;;;;259.55;185.23;;;;;;;23.57;30.68;102289.28;5013175;28;20022;-44
2023/03/03 11:23:22;;;;;;;267.50;190.32;;;;;;;23.43;30.47;102287.06;5013881;28;20309;-46
2023/03/03 11:26:16;;;;;;;261.27;188.27;;;;;;;23.44;30.88;102287.94;5014088;28;20050;-46
2023/03/03 11:28:53;;;;;;;262.20;186.75;;;;;;;23.45;30.92;102281.84;5010501;28;20029;-41
2023/03/03 11:31:52;;;;;;;251.40;185.57;;;;;;;23.52;30.83;102281.25;5014065;28;20069;-41
2023/03/03 11:34:43;;;;;;;253.20;182.43;;;;;;;23.63;30.48;102285.13;5012948;28;20052;-45
2023/03/03 11:37:36;;;;;;;265.98;191.93;;;;;;;23.39;31.01;102277.28;5013014;28;20044;-45
2023/03/03 11:40:15;;;;;;;270.42;190.50;;;;;;;23.40;30.77;102273.84;5013411;28;20038;-45
2023/03/03 11:43:01;;;;;;;244.15;178.02;;;;;;;23.48;30.48;102275.03;5013664;28;20463;-47
2023/03/03 11:45:38;;;;;;;258.60;184.25;;;;;;;23.41;30.82;102273.00;5013817;28;20030;-44